Poagville, Mississippi
Current Conditions -  °F | °C
As of 12:35 AM on Thursday 29 Jan 2015 (Local Time) from KUTA Reporting Station
Clear Clear  
Wind Chill: 50°   Ceiling: Unl
Heat Index: 50°   Visibility: 10mi
Dew Point: 37°   Wind: 9mph
Humidity: 62%   Direction: 170°S
Pressure: 30.08"   Gusts: NA
Location:  34.6957°N, 90.0062°W
Report Text: KUTA 290635Z AUTO 17008KT 10SM CLR 10/03 A3008 RMK AO2
Loading
Personal Weather Stations






























Interactive Weather Map New forecast layout! Learn more

10-Day Weather Forecast

Advertisements
Track Severe Weather on mobile